createdAt,value
2023-05-09T00:00:03.564Z,14.42
2023-05-09T00:01:14.162Z,14.49
2023-05-09T00:02:17.135Z,14.34
2023-05-09T00:03:19.282Z,14.35
2023-05-09T00:04:21.524Z,14.31
2023-05-09T00:05:23.798Z,14.31
2023-05-09T00:06:27.594Z,14.31
2023-05-09T00:07:29.942Z,14.27
2023-05-09T00:08:32.325Z,14.28
2023-05-09T00:09:34.428Z,14.31
2023-05-09T00:10:36.694Z,14.33
2023-05-09T00:11:39.003Z,14.32
2023-05-09T00:12:43.686Z,14.37
2023-05-09T00:13:45.938Z,14.32
2023-05-09T00:14:51.750Z,14.27
2023-05-09T00:15:54.063Z,14.24
2023-05-09T00:16:59.211Z,14.21
2023-05-09T00:18:01.454Z,14.19
2023-05-09T00:19:04.144Z,14.23
2023-05-09T00:20:12.199Z,14.34
2023-05-09T00:21:14.457Z,14.21
2023-05-09T00:22:23.436Z,14.41
2023-05-09T00:23:25.735Z,14.15
2023-05-09T00:24:28.050Z,14.15
2023-05-09T00:25:30.322Z,14.15
2023-05-09T00:26:32.434Z,14.13
2023-05-09T00:27:34.724Z,14.16
2023-05-09T00:28:37.395Z,14.13
2023-05-09T00:29:39.562Z,14.11
2023-05-09T00:30:41.773Z,14.10
2023-05-09T00:31:43.954Z,14.07
2023-05-09T00:32:46.147Z,14.06
2023-05-09T00:33:48.572Z,14.01
2023-05-09T00:34:50.736Z,14.03
2023-05-09T00:35:55.802Z,14.18
2023-05-09T00:36:57.949Z,14.02
2023-05-09T00:38:00.167Z,14.02
2023-05-09T00:39:02.898Z,14.01
2023-05-09T00:40:07.536Z,14.10
2023-05-09T00:41:09.677Z,14.01
2023-05-09T00:42:12.018Z,14.01
2023-05-09T00:43:14.165Z,13.99
2023-05-09T00:44:16.322Z,14.06
2023-05-09T00:45:18.594Z,14.03
2023-05-09T00:46:21.381Z,14.08
2023-05-09T00:47:24.319Z,14.01
2023-05-09T00:48:26.744Z,14.00
2023-05-09T00:49:29.121Z,13.99
2023-05-09T00:50:31.662Z,13.99
2023-05-09T00:51:33.910Z,13.92
2023-05-09T00:52:36.373Z,13.93
2023-05-09T00:53:38.830Z,13.93
2023-05-09T00:54:41.172Z,13.92
2023-05-09T00:55:43.366Z,13.90
2023-05-09T00:56:45.541Z,13.90
2023-05-09T00:57:47.807Z,13.87
2023-05-09T00:58:50.324Z,13.88
2023-05-09T00:59:52.651Z,13.91
2023-05-09T01:00:55.036Z,13.89
2023-05-09T01:01:57.489Z,13.86
2023-05-09T01:02:59.805Z,13.89
2023-05-09T01:04:02.058Z,13.83
2023-05-09T01:05:04.548Z,13.84
2023-05-09T01:06:09.554Z,14.00
2023-05-09T01:07:21.546Z,14.01
2023-05-09T01:08:31.484Z,13.99
2023-05-09T01:10:01.742Z,14.06
2023-05-09T01:11:28.239Z,13.96
2023-05-09T01:13:01.284Z,14.05
2023-05-09T01:14:20.655Z,13.98
2023-05-09T01:15:31.700Z,13.83
2023-05-09T01:17:02.846Z,13.99
2023-05-09T01:18:04.996Z,14.03
2023-05-09T01:19:17.213Z,13.83
2023-05-09T01:20:30.121Z,13.96
2023-05-09T01:21:33.416Z,13.83
2023-05-09T01:22:38.045Z,13.86
2023-05-09T01:23:46.697Z,13.76
2023-05-09T01:25:07.814Z,13.98
2023-05-09T01:26:40.975Z,13.97
2023-05-09T01:27:50.898Z,13.98
2023-05-09T01:29:25.902Z,14.04
2023-05-09T01:30:29.906Z,13.82
2023-05-09T01:31:34.692Z,13.81
2023-05-09T01:32:40.673Z,13.84
2023-05-09T01:33:44.599Z,13.69
2023-05-09T01:34:51.961Z,13.87
2023-05-09T01:36:01.784Z,13.91
2023-05-09T01:37:06.157Z,13.82
2023-05-09T01:38:13.601Z,13.91
2023-05-09T01:39:17.973Z,13.91
2023-05-09T01:40:22.438Z,13.83
2023-05-09T01:41:26.259Z,13.78
2023-05-09T01:42:33.823Z,13.81
2023-05-09T01:43:38.061Z,13.69
2023-05-09T01:44:43.203Z,13.72
2023-05-09T01:45:46.021Z,13.56
2023-05-09T01:46:50.500Z,13.65
2023-05-09T01:47:54.089Z,13.62
2023-05-09T01:48:57.636Z,13.60
2023-05-09T01:50:02.902Z,13.66
2023-05-09T01:51:07.367Z,13.63
2023-05-09T01:52:13.992Z,13.63
2023-05-09T01:53:17.545Z,13.62
2023-05-09T01:54:21.908Z,13.56
2023-05-09T01:55:28.113Z,13.60
2023-05-09T01:56:32.200Z,13.51
2023-05-09T01:57:36.384Z,13.53
2023-05-09T01:58:39.486Z,13.50
2023-05-09T01:59:44.396Z,13.44
2023-05-09T02:00:48.112Z,13.40
2023-05-09T02:01:51.173Z,13.34
2023-05-09T02:02:54.515Z,13.32
2023-05-09T02:03:57.347Z,13.38
2023-05-09T02:05:01.589Z,13.37
2023-05-09T02:06:04.875Z,13.36
2023-05-09T02:07:08.497Z,13.41
2023-05-09T02:08:11.421Z,13.31
2023-05-09T02:09:13.671Z,13.30
2023-05-09T02:10:16.220Z,13.27
2023-05-09T02:11:18.606Z,13.24
2023-05-09T02:12:21.109Z,13.25
2023-05-09T02:13:23.915Z,13.25
2023-05-09T02:14:26.257Z,13.24
2023-05-09T02:15:29.554Z,13.26
2023-05-09T02:16:32.300Z,13.14
2023-05-09T02:17:34.572Z,13.11
2023-05-09T02:18:37.328Z,13.11
2023-05-09T02:19:39.552Z,13.11
2023-05-09T02:20:41.805Z,13.10
2023-05-09T02:21:44.173Z,13.10
2023-05-09T02:22:47.211Z,13.13
2023-05-09T02:23:49.543Z,13.09
2023-05-09T02:24:51.997Z,13.03
2023-05-09T02:25:54.577Z,13.02
2023-05-09T02:26:58.184Z,12.97
2023-05-09T02:28:01.509Z,13.02
2023-05-09T02:29:06.374Z,12.96
2023-05-09T02:30:12.754Z,12.91
2023-05-09T02:31:17.131Z,13.00
2023-05-09T02:32:24.314Z,13.02
2023-05-09T02:33:28.157Z,12.91
2023-05-09T02:34:30.829Z,12.87
2023-05-09T02:35:33.174Z,12.84
2023-05-09T02:36:35.729Z,12.79
2023-05-09T02:37:38.968Z,12.82
2023-05-09T02:38:41.796Z,12.74
2023-05-09T02:39:44.418Z,12.74
2023-05-09T02:40:47.558Z,12.78
2023-05-09T02:41:49.855Z,12.69
2023-05-09T02:42:52.118Z,12.75
2023-05-09T02:43:54.309Z,12.77
2023-05-09T02:44:56.847Z,12.75
2023-05-09T02:45:59.079Z,12.70
2023-05-09T02:47:03.833Z,12.73
2023-05-09T02:48:08.720Z,12.71
2023-05-09T02:49:19.534Z,12.65
2023-05-09T02:50:29.313Z,12.63
2023-05-09T02:51:31.485Z,12.59
2023-05-09T02:52:33.705Z,12.51
2023-05-09T02:53:35.951Z,12.56
2023-05-09T02:54:38.931Z,12.55
2023-05-09T02:55:41.168Z,12.51
2023-05-09T02:56:43.396Z,12.46
2023-05-09T02:57:45.622Z,12.49
2023-05-09T02:58:51.347Z,12.43
2023-05-09T02:59:53.640Z,12.41
2023-05-09T03:00:55.836Z,12.41
2023-05-09T03:01:58.128Z,12.46
2023-05-09T03:03:00.573Z,12.38
2023-05-09T03:04:02.837Z,12.38
2023-05-09T03:05:05.741Z,12.36
2023-05-09T03:06:09.668Z,12.38
2023-05-09T03:07:12.181Z,12.35
2023-05-09T03:08:14.381Z,12.30
2023-05-09T03:09:16.678Z,12.32
2023-05-09T03:10:18.836Z,12.30
2023-05-09T03:11:21.024Z,12.33
2023-05-09T03:12:23.966Z,12.34
2023-05-09T03:13:28.652Z,12.31
2023-05-09T03:14:32.468Z,12.27
2023-05-09T03:15:35.566Z,12.31
2023-05-09T03:16:38.625Z,12.25
2023-05-09T03:17:45.563Z,12.28
2023-05-09T03:18:52.701Z,12.24
2023-05-09T03:19:54.840Z,12.13
2023-05-09T03:20:57.026Z,12.19
2023-05-09T03:21:59.367Z,12.17
2023-05-09T03:23:02.050Z,12.17
2023-05-09T03:24:04.765Z,12.20
2023-05-09T03:25:07.193Z,12.18
2023-05-09T03:26:09.381Z,12.15
2023-05-09T03:27:11.651Z,12.14
2023-05-09T03:28:15.056Z,12.09
2023-05-09T03:29:17.439Z,12.15
2023-05-09T03:30:19.827Z,12.18
2023-05-09T03:31:24.065Z,12.12
2023-05-09T03:32:27.363Z,12.18
2023-05-09T03:33:29.533Z,12.13
2023-05-09T03:34:32.067Z,12.11
2023-05-09T03:35:34.992Z,12.07
2023-05-09T03:36:37.715Z,12.09
2023-05-09T03:37:40.085Z,12.07
2023-05-09T03:38:43.155Z,12.14
2023-05-09T03:39:45.741Z,12.11
2023-05-09T03:40:48.048Z,12.08
2023-05-09T03:41:50.516Z,12.10
2023-05-09T03:42:52.703Z,12.14
2023-05-09T03:43:55.606Z,12.19
2023-05-09T03:44:57.946Z,12.15
2023-05-09T03:46:04.073Z,12.20
2023-05-09T03:47:07.575Z,12.15
2023-05-09T03:48:13.573Z,12.10
2023-05-09T03:49:23.296Z,12.12
2023-05-09T03:50:29.450Z,12.16
2023-05-09T03:51:33.471Z,12.09
2023-05-09T03:52:37.888Z,12.14
2023-05-09T03:53:51.345Z,12.21
2023-05-09T03:54:53.757Z,12.20
2023-05-09T03:56:10.903Z,12.26
2023-05-09T03:57:21.571Z,12.25
2023-05-09T03:58:26.350Z,12.28
2023-05-09T03:59:28.903Z,12.34
2023-05-09T04:00:31.420Z,12.34
2023-05-09T04:01:42.183Z,12.68
2023-05-09T04:02:44.769Z,12.39
2023-05-09T04:03:57.707Z,12.45
2023-05-09T04:05:01.312Z,12.52
2023-05-09T04:06:03.727Z,12.51
2023-05-09T04:07:10.387Z,12.56
2023-05-09T04:08:12.671Z,12.56
2023-05-09T04:09:14.972Z,12.61
2023-05-09T04:10:17.610Z,12.69
2023-05-09T04:11:21.647Z,12.76
2023-05-09T04:12:24.406Z,12.79
2023-05-09T04:13:26.743Z,12.73
2023-05-09T04:14:29.076Z,12.68
2023-05-09T04:15:31.267Z,12.80
2023-05-09T04:16:33.910Z,12.74
2023-05-09T04:17:36.153Z,12.81
2023-05-09T04:18:42.117Z,12.87
2023-05-09T04:19:44.316Z,12.91
2023-05-09T04:20:46.506Z,12.96
2023-05-09T04:21:49.149Z,13.02
2023-05-09T04:22:51.320Z,13.10
2023-05-09T04:23:55.054Z,13.14
2023-05-09T04:25:05.128Z,13.17
2023-05-09T04:26:07.430Z,13.23
2023-05-09T04:27:10.265Z,13.23
2023-05-09T04:28:12.984Z,13.22
2023-05-09T04:29:15.195Z,13.32
2023-05-09T04:30:21.289Z,13.34
2023-05-09T04:31:23.646Z,13.38
2023-05-09T04:32:27.547Z,13.41
2023-05-09T04:33:30.064Z,13.42
2023-05-09T04:34:35.993Z,13.28
2023-05-09T04:35:44.318Z,13.24
2023-05-09T04:36:46.778Z,13.24
2023-05-09T04:37:49.021Z,13.29
2023-05-09T04:38:52.014Z,13.25
2023-05-09T04:39:58.872Z,13.29
2023-05-09T04:41:09.516Z,13.19
2023-05-09T04:42:11.802Z,13.18
2023-05-09T04:43:13.922Z,13.18
2023-05-09T04:44:17.130Z,13.12
2023-05-09T04:45:19.502Z,13.15
2023-05-09T04:46:25.010Z,13.05
2023-05-09T04:47:27.960Z,13.03
2023-05-09T04:48:30.191Z,13.10
2023-05-09T04:49:32.351Z,13.13
2023-05-09T04:50:34.512Z,13.13
2023-05-09T04:51:38.767Z,13.14
2023-05-09T04:52:41.081Z,13.13
2023-05-09T04:53:43.392Z,13.11
2023-05-09T04:54:45.743Z,13.17
2023-05-09T04:55:49.488Z,13.24
2023-05-09T04:56:53.126Z,13.34
2023-05-09T04:57:55.584Z,13.39
2023-05-09T04:58:57.729Z,13.39
2023-05-09T04:59:59.900Z,13.42
2023-05-09T05:01:02.075Z,13.44
2023-05-09T05:02:04.392Z,13.46
2023-05-09T05:03:07.206Z,13.36
2023-05-09T05:04:10.155Z,13.31
2023-05-09T05:05:12.821Z,13.37
2023-05-09T05:06:17.949Z,13.35
2023-05-09T05:07:20.281Z,13.42
2023-05-09T05:08:22.604Z,13.50
2023-05-09T05:09:24.985Z,13.46
2023-05-09T05:10:27.219Z,13.31
2023-05-09T05:11:37.367Z,13.47
2023-05-09T05:12:40.488Z,13.50
2023-05-09T05:13:45.291Z,13.62
2023-05-09T05:14:47.461Z,13.64
2023-05-09T05:15:53.797Z,13.68
2023-05-09T05:16:56.642Z,13.66
2023-05-09T05:17:59.552Z,13.67
2023-05-09T05:19:06.094Z,13.84
2023-05-09T05:20:12.394Z,13.93
2023-05-09T05:21:19.289Z,13.95
2023-05-09T05:22:21.677Z,14.02
2023-05-09T05:23:23.883Z,14.01
2023-05-09T05:24:28.803Z,14.07
2023-05-09T05:25:31.986Z,14.10
2023-05-09T05:26:35.799Z,14.23
2023-05-09T05:27:38.174Z,14.29
2023-05-09T05:28:40.908Z,14.29
2023-05-09T05:29:43.251Z,14.32
2023-05-09T05:30:46.182Z,14.30
2023-05-09T05:31:48.554Z,14.43
2023-05-09T05:32:50.813Z,14.28
2023-05-09T05:33:55.462Z,14.38
2023-05-09T05:34:57.641Z,14.34
2023-05-09T05:36:00.641Z,14.46
2023-05-09T05:37:02.797Z,14.56
2023-05-09T05:38:05.071Z,14.69
2023-05-09T05:39:07.314Z,14.85
2023-05-09T05:40:10.064Z,14.85
2023-05-09T05:41:15.676Z,14.85
2023-05-09T05:42:18.443Z,14.81
2023-05-09T05:43:20.816Z,14.77
2023-05-09T05:44:22.988Z,14.93
2023-05-09T05:45:25.294Z,15.11
2023-05-09T05:46:30.206Z,15.01
2023-05-09T05:47:33.318Z,15.12
2023-05-09T05:48:36.213Z,15.24
2023-05-09T05:49:38.839Z,15.34
2023-05-09T05:50:41.258Z,15.38
2023-05-09T05:51:43.450Z,15.44
2023-05-09T05:52:46.394Z,15.54
2023-05-09T05:53:50.955Z,15.44
2023-05-09T05:54:54.561Z,15.51
2023-05-09T05:55:56.819Z,15.62
2023-05-09T05:56:59.070Z,15.89
2023-05-09T05:58:01.213Z,15.85
2023-05-09T05:59:03.527Z,16.04
2023-05-09T06:00:11.738Z,16.37
2023-05-09T06:01:20.668Z,16.42
2023-05-09T06:02:22.919Z,16.79
2023-05-09T06:03:25.714Z,16.69
2023-05-09T06:04:32.857Z,16.61
2023-05-09T06:06:43.605Z,16.96
2023-05-09T06:07:45.997Z,16.99
2023-05-09T06:08:51.853Z,17.09
2023-05-09T06:09:54.038Z,17.26
2023-05-09T06:10:56.237Z,17.58
2023-05-09T06:11:58.478Z,17.66
2023-05-09T06:13:01.156Z,17.71
2023-05-09T06:14:03.445Z,17.79
2023-05-09T06:15:06.621Z,17.70
2023-05-09T06:16:19.533Z,17.91
2023-05-09T06:17:25.575Z,17.54
2023-05-09T06:18:28.054Z,17.76
2023-05-09T06:19:30.295Z,17.52
2023-05-09T06:20:32.497Z,17.54
2023-05-09T06:21:34.663Z,17.47
2023-05-09T06:22:36.870Z,17.31
2023-05-09T06:23:44.693Z,17.44
2023-05-09T06:24:53.380Z,17.60
2023-05-09T06:25:55.706Z,17.91
2023-05-09T06:26:58.001Z,18.08
2023-05-09T06:28:00.234Z,18.12
2023-05-09T06:29:02.986Z,18.06
2023-05-09T06:30:14.084Z,18.31
2023-05-09T06:31:20.303Z,18.43
2023-05-09T06:32:22.595Z,18.25
2023-05-09T06:33:24.826Z,18.25
2023-05-09T06:34:26.985Z,18.11
2023-05-09T06:35:29.091Z,17.97
2023-05-09T06:36:32.367Z,18.10
2023-05-09T06:38:34.315Z,18.37
2023-05-09T06:39:36.662Z,18.20
2023-05-09T06:40:38.784Z,17.90
2023-05-09T06:41:40.969Z,17.98
2023-05-09T06:42:43.225Z,17.91
2023-05-09T06:43:45.652Z,17.82
2023-05-09T06:44:47.808Z,17.88
2023-05-09T06:45:50.036Z,18.06
2023-05-09T06:46:52.203Z,18.04
2023-05-09T06:47:54.470Z,18.03
2023-05-09T06:48:56.597Z,18.31
2023-05-09T06:50:54.670Z,18.87
2023-05-09T06:51:56.982Z,18.96
2023-05-09T06:52:59.208Z,19.08
2023-05-09T06:54:01.414Z,19.09
2023-05-09T06:55:04.346Z,19.22
2023-05-09T06:56:06.583Z,19.03
2023-05-09T06:57:08.953Z,18.68
2023-05-09T06:58:12.032Z,18.43
2023-05-09T06:59:16.291Z,18.38
2023-05-09T07:00:18.780Z,18.48
2023-05-09T07:01:20.965Z,18.68
2023-05-09T07:02:23.157Z,18.98
2023-05-09T07:03:26.085Z,19.09
2023-05-09T07:04:28.257Z,19.46
2023-05-09T07:05:30.602Z,19.82
2023-05-09T07:06:32.932Z,20.17
2023-05-09T07:07:35.377Z,20.51
2023-05-09T07:08:37.653Z,20.81
2023-05-09T07:09:39.868Z,20.99
2023-05-09T07:10:42.078Z,21.37
2023-05-09T07:11:45.577Z,21.20
2023-05-09T07:12:50.394Z,21.69
2023-05-09T07:13:52.897Z,21.36
2023-05-09T07:14:55.038Z,21.47
2023-05-09T07:15:57.798Z,21.28
2023-05-09T07:17:10.274Z,20.81
2023-05-09T07:18:20.734Z,21.17
2023-05-09T07:19:22.851Z,20.50
2023-05-09T07:20:25.674Z,20.12
2023-05-09T07:21:27.820Z,19.98
2023-05-09T07:22:31.769Z,20.32
2023-05-09T07:23:34.851Z,20.06
2023-05-09T07:24:37.042Z,20.15
2023-05-09T07:25:39.201Z,20.78
2023-05-09T07:26:41.378Z,21.28
2023-05-09T07:27:43.561Z,21.78
2023-05-09T07:28:45.759Z,21.89
2023-05-09T07:29:49.187Z,22.47
2023-05-09T07:30:51.517Z,22.61
2023-05-09T07:31:53.749Z,22.49
2023-05-09T07:32:55.995Z,22.66
2023-05-09T07:33:58.228Z,22.61
2023-05-09T07:35:01.071Z,22.85
2023-05-09T07:36:03.654Z,22.47
2023-05-09T07:37:06.024Z,22.75
2023-05-09T07:38:08.475Z,22.50
2023-05-09T07:39:10.656Z,22.79
2023-05-09T07:40:13.462Z,22.76
2023-05-09T07:41:16.395Z,22.57
2023-05-09T07:42:19.023Z,23.16
2023-05-09T07:43:21.328Z,22.92
2023-05-09T07:44:23.718Z,23.12
2023-05-09T07:45:26.127Z,23.58
2023-05-09T07:46:28.390Z,24.27
2023-05-09T07:47:30.661Z,24.22
2023-05-09T07:48:32.876Z,25.38
2023-05-09T07:49:35.604Z,26.03
2023-05-09T07:50:37.847Z,26.04
2023-05-09T07:51:39.998Z,24.98
2023-05-09T07:52:42.145Z,24.40
2023-05-09T07:53:44.330Z,23.83
2023-05-09T07:54:46.661Z,24.21
2023-05-09T07:55:50.136Z,24.17
2023-05-09T07:56:52.576Z,24.63
2023-05-09T07:57:55.313Z,24.64
2023-05-09T07:58:57.494Z,25.22
2023-05-09T07:59:59.661Z,24.88
2023-05-09T08:01:01.852Z,25.21
2023-05-09T08:02:04.051Z,25.44
2023-05-09T08:03:07.428Z,25.22
2023-05-09T08:04:10.076Z,25.14
2023-05-09T08:05:13.911Z,24.29
2023-05-09T08:06:16.351Z,24.53
2023-05-09T08:07:18.476Z,24.35
2023-05-09T08:08:20.734Z,24.47
2023-05-09T08:09:22.883Z,24.48
2023-05-09T08:10:27.076Z,24.62
2023-05-09T08:11:29.532Z,24.65
2023-05-09T08:12:34.421Z,25.26
2023-05-09T08:13:36.722Z,25.31
2023-05-09T08:14:40.786Z,26.11
2023-05-09T08:15:43.254Z,26.57
2023-05-09T08:16:45.603Z,27.07
2023-05-09T08:17:47.799Z,26.89
2023-05-09T08:18:50.006Z,27.41
2023-05-09T08:19:52.194Z,26.78
2023-05-09T08:20:54.746Z,26.75
2023-05-09T08:21:57.170Z,26.65
2023-05-09T08:22:59.434Z,25.88
2023-05-09T08:24:01.975Z,26.34
2023-05-09T08:25:04.331Z,26.98
2023-05-09T08:26:06.521Z,27.24
2023-05-09T08:27:08.767Z,27.40
2023-05-09T08:28:11.025Z,27.39
2023-05-09T08:29:13.579Z,27.20
2023-05-09T08:30:15.986Z,27.45
2023-05-09T08:31:18.856Z,27.80
2023-05-09T08:32:21.130Z,28.07
2023-05-09T08:33:23.986Z,27.66
2023-05-09T08:34:27.151Z,27.93
2023-05-09T08:35:29.450Z,27.68
2023-05-09T08:36:32.523Z,27.81
2023-05-09T08:37:36.253Z,27.75
2023-05-09T08:38:40.451Z,27.46
2023-05-09T08:39:42.952Z,27.31
2023-05-09T08:40:46.064Z,27.04
2023-05-09T08:41:48.501Z,27.38
2023-05-09T08:42:51.049Z,27.62
2023-05-09T08:43:53.937Z,27.80
2023-05-09T08:44:56.319Z,27.70
2023-05-09T08:46:00.490Z,28.21
2023-05-09T08:47:04.157Z,28.65
2023-05-09T08:48:07.911Z,28.62
2023-05-09T08:49:10.707Z,29.16
2023-05-09T08:50:15.541Z,29.12
2023-05-09T08:51:18.349Z,29.28
2023-05-09T08:52:21.640Z,29.78
2023-05-09T08:53:24.179Z,30.04
2023-05-09T08:54:27.002Z,30.05
2023-05-09T08:55:29.856Z,30.23
2023-05-09T08:56:32.226Z,30.53
2023-05-09T08:57:35.297Z,30.41
2023-05-09T08:58:38.783Z,29.88
2023-05-09T08:59:42.536Z,29.36
2023-05-09T09:00:46.410Z,29.17
2023-05-09T09:01:48.909Z,28.37
2023-05-09T09:02:53.205Z,27.62
2023-05-09T09:03:56.426Z,27.94
2023-05-09T09:04:58.817Z,28.15
2023-05-09T09:06:01.313Z,27.89
2023-05-09T09:07:06.610Z,28.55
2023-05-09T09:08:11.050Z,28.47
2023-05-09T09:09:15.396Z,28.68
2023-05-09T09:10:17.772Z,29.09
2023-05-09T09:11:22.421Z,29.36
2023-05-09T09:12:24.986Z,30.10
2023-05-09T09:13:28.247Z,30.26
2023-05-09T09:14:32.502Z,29.69
2023-05-09T09:15:37.072Z,29.89
2023-05-09T09:16:41.603Z,29.82
2023-05-09T09:17:48.431Z,29.39
2023-05-09T09:18:53.055Z,30.06
2023-05-09T09:20:01.690Z,29.64
2023-05-09T09:21:09.388Z,29.64
2023-05-09T09:22:16.333Z,29.93
2023-05-09T09:23:23.980Z,29.37
2023-05-09T09:24:26.215Z,28.26
2023-05-09T09:25:29.862Z,27.89
2023-05-09T09:26:32.213Z,28.18
2023-05-09T09:27:35.654Z,28.07
2023-05-09T09:28:38.314Z,28.01
2023-05-09T09:29:40.910Z,28.47
2023-05-09T09:30:44.968Z,28.27
2023-05-09T09:31:48.371Z,28.38
2023-05-09T09:32:50.703Z,27.94
2023-05-09T09:36:39.568Z,28.93
2023-05-09T09:37:43.524Z,28.09
2023-05-09T09:38:46.029Z,28.44
2023-05-09T09:39:55.821Z,29.55
2023-05-09T09:40:59.107Z,29.19
2023-05-09T09:42:13.167Z,29.77
2023-05-09T09:43:16.892Z,29.78
2023-05-09T09:44:21.207Z,29.10
2023-05-09T09:45:23.726Z,29.14
2023-05-09T09:46:26.367Z,29.18
2023-05-09T09:47:32.242Z,29.42
2023-05-09T09:48:35.790Z,29.21
2023-05-09T09:49:45.955Z,29.15
2023-05-09T09:50:48.455Z,28.62
2023-05-09T09:51:55.712Z,29.52
2023-05-09T09:52:57.860Z,28.83
2023-05-09T09:54:02.528Z,28.44
2023-05-09T09:55:05.860Z,28.16
2023-05-09T09:56:08.559Z,27.77
2023-05-09T09:57:10.809Z,27.82
2023-05-09T09:58:22.086Z,28.38
2023-05-09T09:59:25.800Z,28.09
2023-05-09T10:00:28.782Z,28.21
2023-05-09T10:01:31.247Z,27.54
2023-05-09T10:02:33.966Z,27.53
2023-05-09T10:03:40.932Z,27.95
2023-05-09T10:04:44.077Z,27.81
2023-05-09T10:05:46.820Z,27.86
2023-05-09T10:06:56.337Z,27.65
2023-05-09T10:08:04.499Z,27.17
2023-05-09T10:09:06.901Z,27.14
2023-05-09T10:10:09.893Z,26.98
2023-05-09T10:11:12.721Z,26.66
2023-05-09T10:12:19.738Z,26.61
2023-05-09T10:13:22.537Z,26.88
2023-05-09T10:14:26.375Z,27.46
2023-05-09T10:15:38.462Z,27.78
2023-05-09T10:16:54.816Z,28.24
2023-05-09T10:17:59.329Z,28.22
2023-05-09T10:19:02.870Z,27.68
2023-05-09T10:20:06.472Z,27.47
2023-05-09T10:21:14.098Z,26.73
2023-05-09T10:22:19.282Z,26.30
2023-05-09T10:23:24.299Z,25.69
2023-05-09T10:24:45.558Z,25.38
2023-05-09T10:25:54.448Z,24.92
2023-05-09T10:27:06.684Z,24.70
2023-05-09T10:28:12.911Z,24.49
2023-05-09T10:29:22.992Z,24.34
2023-05-09T10:30:35.702Z,24.44
2023-05-09T10:31:40.845Z,24.76
2023-05-09T10:33:04.780Z,25.42
2023-05-09T10:34:12.222Z,25.71
2023-05-09T10:35:17.379Z,26.50
2023-05-09T10:36:21.477Z,26.77
2023-05-09T10:37:24.908Z,25.96
2023-05-09T10:38:27.566Z,26.50
2023-05-09T10:39:31.087Z,26.65
2023-05-09T10:40:34.804Z,26.68
2023-05-09T10:41:38.722Z,26.29
2023-05-09T10:42:44.840Z,26.37
2023-05-09T10:43:47.672Z,26.43
2023-05-09T10:44:51.187Z,26.67
2023-05-09T10:45:54.326Z,27.00
2023-05-09T10:46:56.998Z,26.23
2023-05-09T10:47:59.996Z,26.29
2023-05-09T10:49:02.447Z,25.67
2023-05-09T10:50:06.485Z,25.40
2023-05-09T10:51:09.499Z,25.37
2023-05-09T10:52:12.434Z,25.31
2023-05-09T10:53:16.925Z,24.71
2023-05-09T10:54:31.041Z,24.99
2023-05-09T10:55:59.078Z,25.46
2023-05-09T10:57:01.358Z,25.75
2023-05-09T10:58:37.485Z,26.40
2023-05-09T10:59:43.486Z,26.69
2023-05-09T11:00:49.756Z,25.95
2023-05-09T11:02:00.972Z,25.80
2023-05-09T11:03:10.576Z,26.58
2023-05-09T11:04:16.610Z,26.89
2023-05-09T11:05:22.578Z,26.78
2023-05-09T11:06:46.680Z,26.57
2023-05-09T11:08:18.712Z,27.42
2023-05-09T11:09:34.456Z,27.95
2023-05-09T11:10:42.911Z,28.41
2023-05-09T11:11:52.953Z,28.20
2023-05-09T11:12:58.354Z,27.80
2023-05-09T11:14:01.020Z,27.73
2023-05-09T11:15:08.205Z,27.69
2023-05-09T11:16:11.956Z,26.81
2023-05-09T11:17:23.696Z,26.43
2023-05-09T11:18:26.865Z,26.37
2023-05-09T11:19:37.009Z,26.49
2023-05-09T11:20:48.912Z,25.45
2023-05-09T11:22:03.239Z,25.19
2023-05-09T11:23:06.930Z,24.85
2023-05-09T11:24:17.064Z,24.43
2023-05-09T11:25:26.008Z,24.10
2023-05-09T11:26:30.112Z,23.59
2023-05-09T11:27:42.782Z,23.78
2023-05-09T11:28:53.641Z,23.70
2023-05-09T11:29:58.761Z,23.72
2023-05-09T11:32:14.717Z,23.44
2023-05-09T11:33:24.984Z,23.44
2023-05-09T11:34:29.261Z,22.97
2023-05-09T11:35:31.431Z,23.12
2023-05-09T11:36:33.994Z,23.09
2023-05-09T11:38:05.964Z,23.46
2023-05-09T11:39:09.972Z,23.45
2023-05-09T11:40:13.600Z,23.39
2023-05-09T11:41:16.106Z,23.13
2023-05-09T11:42:18.473Z,22.85
2023-05-09T11:43:20.821Z,22.38
2023-05-09T11:44:24.274Z,22.55
2023-05-09T11:45:30.760Z,22.60
2023-05-09T11:46:33.275Z,22.43
2023-05-09T11:47:37.317Z,22.59
2023-05-09T11:48:42.242Z,22.76
2023-05-09T11:49:44.891Z,22.82
2023-05-09T11:50:48.019Z,22.98
2023-05-09T11:51:50.448Z,23.10
2023-05-09T11:52:53.632Z,23.18
2023-05-09T11:55:14.258Z,22.94
2023-05-09T11:56:17.657Z,23.16
2023-05-09T11:57:20.517Z,23.04
2023-05-09T11:58:22.906Z,23.16
2023-05-09T11:59:25.483Z,23.15
2023-05-09T12:00:28.128Z,22.99
2023-05-09T12:01:30.717Z,22.68
2023-05-09T12:02:34.922Z,22.67
2023-05-09T12:03:45.244Z,22.84
2023-05-09T12:04:47.608Z,22.65
2023-05-09T12:05:49.889Z,22.66
2023-05-09T12:06:52.094Z,22.59
2023-05-09T12:07:55.092Z,22.74
2023-05-09T12:08:57.852Z,22.93
2023-05-09T12:10:02.738Z,23.03
2023-05-09T12:11:09.100Z,23.08
2023-05-09T12:12:12.700Z,23.02
2023-05-09T12:13:15.273Z,22.70
2023-05-09T12:14:32.647Z,22.78
2023-05-09T12:15:38.027Z,22.84
2023-05-09T12:16:46.608Z,22.59
2023-05-09T12:18:04.747Z,22.50
2023-05-09T12:19:10.135Z,22.24
2023-05-09T12:20:12.792Z,22.06
2023-05-09T12:21:15.654Z,22.00
2023-05-09T12:22:17.874Z,21.89
2023-05-09T12:23:20.462Z,21.87
2023-05-09T12:24:23.046Z,21.72
2023-05-09T12:25:25.285Z,21.67
2023-05-09T12:26:27.782Z,21.68
2023-05-09T12:27:32.062Z,21.69
2023-05-09T12:28:34.693Z,21.59
2023-05-09T12:30:28.621Z,21.74
2023-05-09T12:31:31.670Z,21.81
2023-05-09T12:32:36.654Z,21.91
2023-05-09T12:33:39.508Z,21.86
2023-05-09T12:34:43.789Z,21.85
2023-05-09T12:36:00.981Z,21.76
2023-05-09T12:37:03.816Z,21.76
2023-05-09T12:38:06.085Z,21.86
2023-05-09T12:39:11.344Z,22.13
2023-05-09T12:40:15.413Z,21.99
2023-05-09T12:41:35.051Z,22.00
2023-05-09T12:42:39.809Z,22.17
2023-05-09T12:43:42.196Z,22.22
2023-05-09T12:44:49.398Z,22.61
2023-05-09T12:45:54.675Z,22.71
2023-05-09T12:46:57.906Z,22.61
2023-05-09T12:48:02.459Z,22.72
2023-05-09T12:49:05.449Z,22.66
2023-05-09T12:50:10.663Z,22.81
2023-05-09T12:51:17.682Z,22.73
2023-05-09T12:52:20.515Z,23.02
2023-05-09T12:53:27.963Z,23.08
2023-05-09T12:54:30.188Z,23.10
2023-05-09T12:55:39.489Z,23.31
2023-05-09T12:56:41.742Z,23.40
2023-05-09T12:57:58.314Z,23.69
2023-05-09T12:59:00.504Z,23.70
2023-05-09T13:00:06.548Z,23.88
2023-05-09T13:01:09.574Z,23.93
2023-05-09T13:02:13.596Z,23.86
2023-05-09T13:03:27.577Z,23.69
2023-05-09T13:04:29.873Z,23.44
2023-05-09T13:05:32.068Z,23.39
2023-05-09T13:06:34.799Z,23.32
2023-05-09T13:07:47.234Z,23.21
2023-05-09T13:09:01.712Z,22.94
2023-05-09T13:10:12.433Z,22.86
2023-05-09T13:11:17.281Z,22.47
2023-05-09T13:12:20.613Z,22.39
2023-05-09T13:13:26.643Z,22.53
2023-05-09T13:14:29.092Z,22.50
2023-05-09T13:15:31.334Z,22.49
2023-05-09T13:16:34.435Z,22.61
2023-05-09T13:17:36.665Z,22.71
2023-05-09T13:18:38.859Z,22.69
2023-05-09T13:19:41.081Z,22.61
2023-05-09T13:20:43.314Z,22.81
2023-05-09T13:21:45.537Z,22.74
2023-05-09T13:22:47.705Z,22.86
2023-05-09T13:23:51.137Z,22.97
2023-05-09T13:24:53.335Z,23.19
2023-05-09T13:25:55.640Z,23.16
2023-05-09T13:26:57.946Z,23.35
2023-05-09T13:28:00.136Z,23.68
2023-05-09T13:30:29.669Z,23.96
2023-05-09T13:31:32.740Z,23.67
2023-05-09T13:32:36.712Z,23.42
2023-05-09T13:33:39.132Z,23.49
2023-05-09T13:34:41.660Z,23.28
2023-05-09T13:35:43.811Z,23.17
2023-05-09T13:36:46.124Z,23.03
2023-05-09T13:37:48.300Z,23.14
2023-05-09T13:38:50.502Z,23.21
2023-05-09T13:39:54.532Z,23.07
2023-05-09T13:40:56.716Z,23.18
2023-05-09T13:41:58.866Z,23.23
2023-05-09T13:43:01.070Z,23.39
2023-05-09T13:44:03.597Z,23.17
2023-05-09T13:45:06.402Z,23.21
2023-05-09T13:46:08.588Z,23.09
2023-05-09T13:47:11.201Z,23.00
2023-05-09T13:48:13.488Z,22.97
2023-05-09T13:49:15.802Z,22.93
2023-05-09T13:50:18.146Z,22.77
2023-05-09T13:51:21.833Z,22.75
2023-05-09T13:52:24.164Z,22.71
2023-05-09T13:53:26.516Z,22.73
2023-05-09T13:54:34.801Z,22.61
2023-05-09T13:55:37.441Z,22.38
2023-05-09T13:56:39.780Z,22.13
2023-05-09T13:57:43.174Z,22.26
2023-05-09T13:58:45.494Z,22.24
2023-05-09T13:59:47.654Z,22.23